sensor_id;sensor_type;location;lat;lon;timestamp;P1;durP1;ratioP1;P2;durP2;ratioP2
3991;SDS011;2010;48.194;16.394;2022-08-01T00:01:30;4.83;;;4.00;;
3991;SDS011;2010;48.194;16.394;2022-08-01T00:03:58;5.83;;;4.60;;
3991;SDS011;2010;48.194;16.394;2022-08-01T00:06:26;4.70;;;4.30;;
3991;SDS011;2010;48.194;16.394;2022-08-01T00:08:55;4.30;;;3.83;;
3991;SDS011;2010;48.194;16.394;2022-08-01T00:11:23;4.43;;;4.10;;
3991;SDS011;2010;48.194;16.394;2022-08-01T00:13:52;3.93;;;3.50;;
3991;SDS011;2010;48.194;16.394;2022-08-01T00:16:20;4.03;;;3.63;;
3991;SDS011;2010;48.194;16.394;2022-08-01T00:18:51;5.80;;;3.90;;
3991;SDS011;2010;48.194;16.394;2022-08-01T00:21:20;4.87;;;4.27;;
3991;SDS011;2010;48.194;16.394;2022-08-01T00:23:49;4.40;;;4.10;;
3991;SDS011;2010;48.194;16.394;2022-08-01T00:26:17;4.00;;;3.70;;
3991;SDS011;2010;48.194;16.394;2022-08-01T00:28:45;3.50;;;3.30;;
3991;SDS011;2010;48.194;16.394;2022-08-01T00:31:13;4.03;;;3.80;;
3991;SDS011;2010;48.194;16.394;2022-08-01T00:33:42;4.33;;;3.93;;
3991;SDS011;2010;48.194;16.394;2022-08-01T00:36:12;3.70;;;3.40;;
3991;SDS011;2010;48.194;16.394;2022-08-01T00:38:41;5.20;;;4.20;;
3991;SDS011;2010;48.194;16.394;2022-08-01T00:41:09;4.57;;;4.17;;
3991;SDS011;2010;48.194;16.394;2022-08-01T00:43:37;4.40;;;4.00;;
3991;SDS011;2010;48.194;16.394;2022-08-01T00:46:06;4.70;;;4.23;;
3991;SDS011;2010;48.194;16.394;2022-08-01T00:48:34;4.97;;;3.90;;
3991;SDS011;2010;48.194;16.394;2022-08-01T00:51:03;4.47;;;4.17;;
3991;SDS011;2010;48.194;16.394;2022-08-01T00:53:33;3.97;;;3.53;;
3991;SDS011;2010;48.194;16.394;2022-08-01T00:56:17;3.93;;;3.63;;
3991;SDS011;2010;48.194;16.394;2022-08-01T00:58:47;4.40;;;3.90;;
3991;SDS011;2010;48.194;16.394;2022-08-01T01:01:16;3.97;;;3.67;;
3991;SDS011;2010;48.194;16.394;2022-08-01T01:03:44;4.03;;;3.70;;
3991;SDS011;2010;48.194;16.394;2022-08-01T01:06:38;3.73;;;3.43;;
3991;SDS011;2010;48.194;16.394;2022-08-01T01:09:21;4.20;;;3.90;;
3991;SDS011;2010;48.194;16.394;2022-08-01T01:12:01;4.27;;;3.97;;
3991;SDS011;2010;48.194;16.394;2022-08-01T01:14:36;4.33;;;3.90;;
3991;SDS011;2010;48.194;16.394;2022-08-01T01:17:13;4.90;;;4.40;;
3991;SDS011;2010;48.194;16.394;2022-08-01T01:20:04;5.00;;;3.80;;
3991;SDS011;2010;48.194;16.394;2022-08-01T01:22:43;4.57;;;4.00;;
3991;SDS011;2010;48.194;16.394;2022-08-01T01:28:09;7.53;;;4.07;;
3991;SDS011;2010;48.194;16.394;2022-08-01T01:30:44;4.00;;;3.70;;
3991;SDS011;2010;48.194;16.394;2022-08-01T01:33:14;4.60;;;4.20;;
3991;SDS011;2010;48.194;16.394;2022-08-01T01:35:46;4.50;;;4.10;;
3991;SDS011;2010;48.194;16.394;2022-08-01T01:38:17;5.93;;;5.07;;
3991;SDS011;2010;48.194;16.394;2022-08-01T01:40:47;4.07;;;3.67;;
3991;SDS011;2010;48.194;16.394;2022-08-01T01:43:17;4.03;;;3.83;;
3991;SDS011;2010;48.194;16.394;2022-08-01T01:45:47;4.20;;;3.83;;
3991;SDS011;2010;48.194;16.394;2022-08-01T01:48:19;7.00;;;4.17;;
3991;SDS011;2010;48.194;16.394;2022-08-01T01:50:48;4.33;;;3.93;;
3991;SDS011;2010;48.194;16.394;2022-08-01T01:53:18;4.60;;;4.30;;
3991;SDS011;2010;48.194;16.394;2022-08-01T01:55:48;5.03;;;4.03;;
3991;SDS011;2010;48.194;16.394;2022-08-01T01:58:18;4.70;;;4.40;;
3991;SDS011;2010;48.194;16.394;2022-08-01T02:00:49;4.90;;;4.37;;
3991;SDS011;2010;48.194;16.394;2022-08-01T02:03:18;4.20;;;3.90;;
3991;SDS011;2010;48.194;16.394;2022-08-01T02:05:47;4.13;;;3.83;;
3991;SDS011;2010;48.194;16.394;2022-08-01T02:08:17;3.90;;;3.30;;
3991;SDS011;2010;48.194;16.394;2022-08-01T02:10:48;3.60;;;3.30;;
3991;SDS011;2010;48.194;16.394;2022-08-01T02:13:32;4.10;;;3.77;;
3991;SDS011;2010;48.194;16.394;2022-08-01T02:16:04;4.33;;;3.93;;
3991;SDS011;2010;48.194;16.394;2022-08-01T02:18:33;7.17;;;4.03;;
3991;SDS011;2010;48.194;16.394;2022-08-01T02:21:02;4.47;;;4.07;;
3991;SDS011;2010;48.194;16.394;2022-08-01T02:23:32;4.13;;;3.67;;
3991;SDS011;2010;48.194;16.394;2022-08-01T02:26:02;4.17;;;3.77;;
3991;SDS011;2010;48.194;16.394;2022-08-01T02:28:38;3.80;;;3.50;;
3991;SDS011;2010;48.194;16.394;2022-08-01T02:31:11;3.87;;;3.53;;
3991;SDS011;2010;48.194;16.394;2022-08-01T02:33:44;4.43;;;3.40;;
3991;SDS011;2010;48.194;16.394;2022-08-01T02:36:13;3.93;;;3.40;;
3991;SDS011;2010;48.194;16.394;2022-08-01T02:38:59;4.30;;;4.00;;
3991;SDS011;2010;48.194;16.394;2022-08-01T02:41:28;3.67;;;3.47;;
3991;SDS011;2010;48.194;16.394;2022-08-01T02:43:58;4.03;;;3.50;;
3991;SDS011;2010;48.194;16.394;2022-08-01T02:46:33;4.20;;;3.80;;
3991;SDS011;2010;48.194;16.394;2022-08-01T02:49:04;4.53;;;4.23;;
3991;SDS011;2010;48.194;16.394;2022-08-01T02:51:35;3.70;;;2.80;;
3991;SDS011;2010;48.194;16.394;2022-08-01T02:54:05;3.80;;;3.50;;
3991;SDS011;2010;48.194;16.394;2022-08-01T02:56:37;3.73;;;3.13;;
3991;SDS011;2010;48.194;16.394;2022-08-01T02:59:07;4.00;;;3.70;;
3991;SDS011;2010;48.194;16.394;2022-08-01T03:01:41;5.83;;;3.47;;
3991;SDS011;2010;48.194;16.394;2022-08-01T03:04:11;3.77;;;3.47;;
3991;SDS011;2010;48.194;16.394;2022-08-01T03:06:40;4.37;;;3.60;;
3991;SDS011;2010;48.194;16.394;2022-08-01T03:09:12;3.47;;;3.27;;
3991;SDS011;2010;48.194;16.394;2022-08-01T03:11:42;3.60;;;3.30;;
3991;SDS011;2010;48.194;16.394;2022-08-01T03:14:11;4.10;;;3.30;;
3991;SDS011;2010;48.194;16.394;2022-08-01T03:16:41;6.70;;;3.37;;
3991;SDS011;2010;48.194;16.394;2022-08-01T03:19:12;5.20;;;3.37;;
3991;SDS011;2010;48.194;16.394;2022-08-01T03:21:41;9.50;;;3.83;;
3991;SDS011;2010;48.194;16.394;2022-08-01T03:24:11;3.77;;;3.57;;
3991;SDS011;2010;48.194;16.394;2022-08-01T03:26:40;3.87;;;3.60;;
3991;SDS011;2010;48.194;16.394;2022-08-01T03:29:10;3.17;;;2.97;;
3991;SDS011;2010;48.194;16.394;2022-08-01T03:31:43;4.87;;;3.83;;
3991;SDS011;2010;48.194;16.394;2022-08-01T03:34:12;4.43;;;3.67;;
3991;SDS011;2010;48.194;16.394;2022-08-01T03:36:42;3.77;;;3.47;;
3991;SDS011;2010;48.194;16.394;2022-08-01T03:39:16;3.30;;;3.10;;
3991;SDS011;2010;48.194;16.394;2022-08-01T03:41:46;3.43;;;3.13;;
3991;SDS011;2010;48.194;16.394;2022-08-01T03:44:30;7.23;;;2.97;;
3991;SDS011;2010;48.194;16.394;2022-08-01T03:47:04;4.97;;;2.80;;
3991;SDS011;2010;48.194;16.394;2022-08-01T03:49:37;3.47;;;3.17;;
3991;SDS011;2010;48.194;16.394;2022-08-01T03:52:09;3.30;;;3.03;;
3991;SDS011;2010;48.194;16.394;2022-08-01T03:54:38;3.90;;;3.40;;
3991;SDS011;2010;48.194;16.394;2022-08-01T03:57:09;4.23;;;3.30;;
3991;SDS011;2010;48.194;16.394;2022-08-01T03:59:58;4.53;;;3.30;;
3991;SDS011;2010;48.194;16.394;2022-08-01T04:02:28;3.70;;;3.40;;
3991;SDS011;2010;48.194;16.394;2022-08-01T04:04:56;4.10;;;3.57;;
3991;SDS011;2010;48.194;16.394;2022-08-01T04:07:27;3.33;;;3.13;;
3991;SDS011;2010;48.194;16.394;2022-08-01T04:09:57;3.40;;;3.20;;
3991;SDS011;2010;48.194;16.394;2022-08-01T04:12:25;3.07;;;2.90;;
3991;SDS011;2010;48.194;16.394;2022-08-01T04:14:53;3.23;;;3.03;;
3991;SDS011;2010;48.194;16.394;2022-08-01T04:17:21;3.93;;;3.67;;
3991;SDS011;2010;48.194;16.394;2022-08-01T04:19:51;3.23;;;3.03;;
3991;SDS011;2010;48.194;16.394;2022-08-01T04:22:19;3.63;;;2.97;;
3991;SDS011;2010;48.194;16.394;2022-08-01T04:24:48;3.77;;;3.33;;
3991;SDS011;2010;48.194;16.394;2022-08-01T04:27:23;3.83;;;3.53;;
3991;SDS011;2010;48.194;16.394;2022-08-01T04:30:15;5.00;;;3.30;;
3991;SDS011;2010;48.194;16.394;2022-08-01T04:32:46;3.10;;;2.90;;
3991;SDS011;2010;48.194;16.394;2022-08-01T04:35:18;3.27;;;3.07;;
3991;SDS011;2010;48.194;16.394;2022-08-01T04:38:07;4.03;;;2.90;;
3991;SDS011;2010;48.194;16.394;2022-08-01T04:40:36;3.37;;;3.10;;
3991;SDS011;2010;48.194;16.394;2022-08-01T04:43:05;3.60;;;3.30;;
3991;SDS011;2010;48.194;16.394;2022-08-01T04:45:34;10.00;;;3.20;;
3991;SDS011;2010;48.194;16.394;2022-08-01T04:48:04;3.73;;;3.43;;
3991;SDS011;2010;48.194;16.394;2022-08-01T04:50:35;5.50;;;3.50;;
3991;SDS011;2010;48.194;16.394;2022-08-01T04:53:04;5.13;;;3.80;;
3991;SDS011;2010;48.194;16.394;2022-08-01T04:55:32;3.70;;;3.00;;
3991;SDS011;2010;48.194;16.394;2022-08-01T04:58:02;5.27;;;4.30;;
3991;SDS011;2010;48.194;16.394;2022-08-01T05:00:30;5.17;;;3.83;;
3991;SDS011;2010;48.194;16.394;2022-08-01T05:03:00;8.10;;;3.57;;
3991;SDS011;2010;48.194;16.394;2022-08-01T05:05:28;6.27;;;3.30;;
3991;SDS011;2010;48.194;16.394;2022-08-01T05:07:58;3.60;;;3.20;;
3991;SDS011;2010;48.194;16.394;2022-08-01T05:10:27;3.93;;;3.30;;
3991;SDS011;2010;48.194;16.394;2022-08-01T05:12:55;5.00;;;3.70;;
3991;SDS011;2010;48.194;16.394;2022-08-01T05:15:23;3.70;;;3.40;;
3991;SDS011;2010;48.194;16.394;2022-08-01T05:17:53;4.63;;;3.83;;
3991;SDS011;2010;48.194;16.394;2022-08-01T05:20:25;3.43;;;3.23;;
3991;SDS011;2010;48.194;16.394;2022-08-01T05:22:53;5.33;;;3.20;;
3991;SDS011;2010;48.194;16.394;2022-08-01T05:25:24;3.53;;;3.23;;
3991;SDS011;2010;48.194;16.394;2022-08-01T05:28:12;5.70;;;3.40;;
3991;SDS011;2010;48.194;16.394;2022-08-01T05:30:44;3.30;;;3.00;;
3991;SDS011;2010;48.194;16.394;2022-08-01T05:33:13;4.43;;;3.17;;
3991;SDS011;2010;48.194;16.394;2022-08-01T05:35:41;4.37;;;3.10;;
3991;SDS011;2010;48.194;16.394;2022-08-01T05:38:14;3.60;;;3.30;;
3991;SDS011;2010;48.194;16.394;2022-08-01T05:40:44;11.23;;;3.20;;
3991;SDS011;2010;48.194;16.394;2022-08-01T05:43:12;3.13;;;2.93;;
3991;SDS011;2010;48.194;16.394;2022-08-01T05:45:40;4.13;;;2.90;;
3991;SDS011;2010;48.194;16.394;2022-08-01T05:48:09;5.37;;;3.87;;
3991;SDS011;2010;48.194;16.394;2022-08-01T05:50:37;5.47;;;3.17;;
3991;SDS011;2010;48.194;16.394;2022-08-01T05:53:05;3.83;;;3.10;;
3991;SDS011;2010;48.194;16.394;2022-08-01T05:55:34;3.90;;;3.60;;
3991;SDS011;2010;48.194;16.394;2022-08-01T05:58:04;4.90;;;3.20;;
3991;SDS011;2010;48.194;16.394;2022-08-01T06:00:32;2.90;;;2.70;;
3991;SDS011;2010;48.194;16.394;2022-08-01T06:03:00;4.13;;;3.00;;
3991;SDS011;2010;48.194;16.394;2022-08-01T06:05:28;4.07;;;3.13;;
3991;SDS011;2010;48.194;16.394;2022-08-01T06:07:58;5.40;;;2.63;;
3991;SDS011;2010;48.194;16.394;2022-08-01T06:10:26;3.33;;;2.67;;
3991;SDS011;2010;48.194;16.394;2022-08-01T06:12:54;3.33;;;3.03;;
3991;SDS011;2010;48.194;16.394;2022-08-01T06:15:24;4.93;;;3.03;;
3991;SDS011;2010;48.194;16.394;2022-08-01T06:17:52;6.60;;;3.07;;
3991;SDS011;2010;48.194;16.394;2022-08-01T06:20:20;4.20;;;3.33;;
3991;SDS011;2010;48.194;16.394;2022-08-01T06:22:48;3.67;;;3.37;;
3991;SDS011;2010;48.194;16.394;2022-08-01T06:25:18;3.47;;;3.17;;
3991;SDS011;2010;48.194;16.394;2022-08-01T06:27:48;3.67;;;3.37;;
3991;SDS011;2010;48.194;16.394;2022-08-01T06:30:16;3.27;;;3.07;;
3991;SDS011;2010;48.194;16.394;2022-08-01T06:32:46;4.20;;;2.93;;
3991;SDS011;2010;48.194;16.394;2022-08-01T06:35:14;3.50;;;3.10;;
3991;SDS011;2010;48.194;16.394;2022-08-01T06:37:44;4.17;;;3.27;;
3991;SDS011;2010;48.194;16.394;2022-08-01T06:40:13;5.60;;;2.90;;
3991;SDS011;2010;48.194;16.394;2022-08-01T06:42:43;3.10;;;2.90;;
3991;SDS011;2010;48.194;16.394;2022-08-01T06:45:13;2.50;;;2.40;;
3991;SDS011;2010;48.194;16.394;2022-08-01T06:47:42;6.63;;;3.10;;
3991;SDS011;2010;48.194;16.394;2022-08-01T06:50:17;3.40;;;3.10;;
3991;SDS011;2010;48.194;16.394;2022-08-01T06:52:46;3.00;;;2.40;;
3991;SDS011;2010;48.194;16.394;2022-08-01T06:55:14;3.97;;;3.10;;
3991;SDS011;2010;48.194;16.394;2022-08-01T06:57:46;3.00;;;2.80;;
3991;SDS011;2010;48.194;16.394;2022-08-01T07:00:15;2.70;;;2.50;;
3991;SDS011;2010;48.194;16.394;2022-08-01T07:02:45;2.70;;;2.60;;
3991;SDS011;2010;48.194;16.394;2022-08-01T07:05:13;3.47;;;3.17;;
3991;SDS011;2010;48.194;16.394;2022-08-01T07:07:43;3.13;;;2.57;;
3991;SDS011;2010;48.194;16.394;2022-08-01T07:10:12;9.50;;;3.30;;
3991;SDS011;2010;48.194;16.394;2022-08-01T07:12:40;2.20;;;2.10;;
3991;SDS011;2010;48.194;16.394;2022-08-01T07:15:09;2.77;;;2.50;;
3991;SDS011;2010;48.194;16.394;2022-08-01T07:17:39;2.53;;;2.33;;
3991;SDS011;2010;48.194;16.394;2022-08-01T07:20:08;5.00;;;2.70;;
3991;SDS011;2010;48.194;16.394;2022-08-01T07:22:39;5.30;;;2.70;;
3991;SDS011;2010;48.194;16.394;2022-08-01T07:25:09;3.60;;;2.93;;
3991;SDS011;2010;48.194;16.394;2022-08-01T07:27:38;2.87;;;2.47;;
3991;SDS011;2010;48.194;16.394;2022-08-01T07:30:06;3.57;;;3.27;;
3991;SDS011;2010;48.194;16.394;2022-08-01T07:32:35;3.47;;;2.90;;
3991;SDS011;2010;48.194;16.394;2022-08-01T07:35:03;3.57;;;2.87;;
3991;SDS011;2010;48.194;16.394;2022-08-01T07:37:32;3.07;;;2.77;;
3991;SDS011;2010;48.194;16.394;2022-08-01T07:40:16;2.80;;;2.60;;
3991;SDS011;2010;48.194;16.394;2022-08-01T07:42:45;3.13;;;2.50;;
3991;SDS011;2010;48.194;16.394;2022-08-01T07:45:14;2.63;;;2.53;;
3991;SDS011;2010;48.194;16.394;2022-08-01T07:47:42;2.90;;;2.70;;
3991;SDS011;2010;48.194;16.394;2022-08-01T07:50:11;2.97;;;2.60;;
3991;SDS011;2010;48.194;16.394;2022-08-01T07:52:40;8.93;;;2.60;;
3991;SDS011;2010;48.194;16.394;2022-08-01T07:55:08;3.07;;;2.50;;
3991;SDS011;2010;48.194;16.394;2022-08-01T07:57:43;3.17;;;2.97;;
3991;SDS011;2010;48.194;16.394;2022-08-01T08:00:12;2.63;;;2.40;;
3991;SDS011;2010;48.194;16.394;2022-08-01T08:02:40;3.17;;;2.97;;
3991;SDS011;2010;48.194;16.394;2022-08-01T08:05:09;3.07;;;2.80;;
3991;SDS011;2010;48.194;16.394;2022-08-01T08:07:37;2.50;;;2.30;;
3991;SDS011;2010;48.194;16.394;2022-08-01T08:10:06;2.53;;;2.33;;
3991;SDS011;2010;48.194;16.394;2022-08-01T08:12:34;3.43;;;3.20;;
3991;SDS011;2010;48.194;16.394;2022-08-01T08:15:04;4.37;;;3.47;;
3991;SDS011;2010;48.194;16.394;2022-08-01T08:17:33;2.67;;;2.57;;
3991;SDS011;2010;48.194;16.394;2022-08-01T08:20:03;5.83;;;2.67;;
3991;SDS011;2010;48.194;16.394;2022-08-01T08:22:35;3.43;;;2.23;;
3991;SDS011;2010;48.194;16.394;2022-08-01T08:25:04;3.83;;;2.57;;
3991;SDS011;2010;48.194;16.394;2022-08-01T08:27:33;2.60;;;2.50;;
3991;SDS011;2010;48.194;16.394;2022-08-01T08:30:05;4.17;;;2.60;;
3991;SDS011;2010;48.194;16.394;2022-08-01T08:32:35;5.37;;;2.63;;
3991;SDS011;2010;48.194;16.394;2022-08-01T08:35:03;2.90;;;2.70;;
3991;SDS011;2010;48.194;16.394;2022-08-01T08:37:33;3.60;;;2.50;;
3991;SDS011;2010;48.194;16.394;2022-08-01T08:40:08;3.03;;;2.70;;
3991;SDS011;2010;48.194;16.394;2022-08-01T08:42:38;2.50;;;2.37;;
3991;SDS011;2010;48.194;16.394;2022-08-01T08:45:09;2.33;;;2.23;;
3991;SDS011;2010;48.194;16.394;2022-08-01T08:47:38;2.67;;;2.47;;
3991;SDS011;2010;48.194;16.394;2022-08-01T08:50:07;2.93;;;2.73;;
3991;SDS011;2010;48.194;16.394;2022-08-01T08:52:37;2.50;;;2.40;;
3991;SDS011;2010;48.194;16.394;2022-08-01T08:55:07;3.43;;;2.30;;
3991;SDS011;2010;48.194;16.394;2022-08-01T08:57:38;2.90;;;2.20;;
3991;SDS011;2010;48.194;16.394;2022-08-01T09:00:09;2.93;;;2.67;;
3991;SDS011;2010;48.194;16.394;2022-08-01T09:02:40;7.70;;;2.73;;
3991;SDS011;2010;48.194;16.394;2022-08-01T09:05:14;6.23;;;2.50;;
3991;SDS011;2010;48.194;16.394;2022-08-01T09:07:45;5.53;;;2.87;;
3991;SDS011;2010;48.194;16.394;2022-08-01T09:10:15;2.70;;;2.60;;
3991;SDS011;2010;48.194;16.394;2022-08-01T09:13:03;3.10;;;2.90;;
3991;SDS011;2010;48.194;16.394;2022-08-01T09:15:42;2.93;;;2.67;;
3991;SDS011;2010;48.194;16.394;2022-08-01T09:18:27;3.27;;;2.40;;
3991;SDS011;2010;48.194;16.394;2022-08-01T09:21:10;2.73;;;2.53;;
3991;SDS011;2010;48.194;16.394;2022-08-01T09:23:43;3.13;;;2.93;;
3991;SDS011;2010;48.194;16.394;2022-08-01T09:26:21;4.20;;;2.40;;
3991;SDS011;2010;48.194;16.394;2022-08-01T09:28:54;3.27;;;2.97;;
3991;SDS011;2010;48.194;16.394;2022-08-01T09:31:23;3.33;;;2.80;;
3991;SDS011;2010;48.194;16.394;2022-08-01T09:34:04;2.73;;;2.53;;
3991;SDS011;2010;48.194;16.394;2022-08-01T09:36:48;4.20;;;2.60;;
3991;SDS011;2010;48.194;16.394;2022-08-01T09:39:22;7.10;;;3.17;;
3991;SDS011;2010;48.194;16.394;2022-08-01T09:41:52;2.87;;;2.77;;
3991;SDS011;2010;48.194;16.394;2022-08-01T09:44:36;2.83;;;2.73;;
3991;SDS011;2010;48.194;16.394;2022-08-01T09:47:12;3.43;;;2.60;;
3991;SDS011;2010;48.194;16.394;2022-08-01T09:49:53;3.87;;;3.17;;
3991;SDS011;2010;48.194;16.394;2022-08-01T09:52:25;3.47;;;2.97;;
3991;SDS011;2010;48.194;16.394;2022-08-01T09:54:55;2.87;;;2.67;;
3991;SDS011;2010;48.194;16.394;2022-08-01T09:57:24;3.57;;;3.10;;
3991;SDS011;2010;48.194;16.394;2022-08-01T09:59:54;2.93;;;2.67;;
3991;SDS011;2010;48.194;16.394;2022-08-01T10:02:31;2.90;;;2.70;;
3991;SDS011;2010;48.194;16.394;2022-08-01T10:05:01;2.60;;;2.50;;
3991;SDS011;2010;48.194;16.394;2022-08-01T10:07:34;3.43;;;3.13;;
3991;SDS011;2010;48.194;16.394;2022-08-01T10:10:10;5.57;;;2.83;;
3991;SDS011;2010;48.194;16.394;2022-08-01T10:12:40;2.90;;;2.70;;
3991;SDS011;2010;48.194;16.394;2022-08-01T10:15:11;3.30;;;3.00;;
3991;SDS011;2010;48.194;16.394;2022-08-01T10:17:45;4.57;;;3.20;;
3991;SDS011;2010;48.194;16.394;2022-08-01T10:20:20;3.77;;;3.47;;
3991;SDS011;2010;48.194;16.394;2022-08-01T10:22:58;3.30;;;3.10;;
3991;SDS011;2010;48.194;16.394;2022-08-01T10:25:34;2.90;;;2.80;;
3991;SDS011;2010;48.194;16.394;2022-08-01T10:28:10;5.53;;;3.27;;
3991;SDS011;2010;48.194;16.394;2022-08-01T10:30:45;3.73;;;3.43;;
3991;SDS011;2010;48.194;16.394;2022-08-01T10:33:16;4.07;;;3.23;;
3991;SDS011;2010;48.194;16.394;2022-08-01T10:36:05;4.57;;;3.23;;
3991;SDS011;2010;48.194;16.394;2022-08-01T10:38:36;6.83;;;3.20;;
3991;SDS011;2010;48.194;16.394;2022-08-01T10:41:05;3.47;;;2.77;;
3991;SDS011;2010;48.194;16.394;2022-08-01T10:43:34;2.90;;;2.70;;
3991;SDS011;2010;48.194;16.394;2022-08-01T10:46:03;3.43;;;2.63;;
3991;SDS011;2010;48.194;16.394;2022-08-01T10:48:35;3.87;;;2.97;;
3991;SDS011;2010;48.194;16.394;2022-08-01T10:51:10;3.27;;;3.07;;
3991;SDS011;2010;48.194;16.394;2022-08-01T10:53:47;4.90;;;2.60;;
3991;SDS011;2010;48.194;16.394;2022-08-01T10:56:20;3.80;;;2.80;;
3991;SDS011;2010;48.194;16.394;2022-08-01T10:59:00;3.60;;;3.30;;
3991;SDS011;2010;48.194;16.394;2022-08-01T11:01:37;4.07;;;3.33;;
3991;SDS011;2010;48.194;16.394;2022-08-01T11:04:12;3.23;;;2.93;;
3991;SDS011;2010;48.194;16.394;2022-08-01T11:06:49;2.90;;;2.80;;
3991;SDS011;2010;48.194;16.394;2022-08-01T11:09:29;2.77;;;2.57;;
3991;SDS011;2010;48.194;16.394;2022-08-01T11:12:04;3.40;;;3.17;;
3991;SDS011;2010;48.194;16.394;2022-08-01T11:18:00;3.30;;;3.10;;
3991;SDS011;2010;48.194;16.394;2022-08-01T11:20:32;3.17;;;2.97;;
3991;SDS011;2010;48.194;16.394;2022-08-01T11:23:17;3.07;;;2.73;;
3991;SDS011;2010;48.194;16.394;2022-08-01T11:26:08;5.07;;;3.23;;
3991;SDS011;2010;48.194;16.394;2022-08-01T11:28:43;4.20;;;3.40;;
3991;SDS011;2010;48.194;16.394;2022-08-01T11:31:35;4.43;;;2.93;;
3991;SDS011;2010;48.194;16.394;2022-08-01T11:34:04;2.63;;;2.53;;
3991;SDS011;2010;48.194;16.394;2022-08-01T11:36:34;2.93;;;2.43;;
3991;SDS011;2010;48.194;16.394;2022-08-01T11:39:22;5.23;;;2.60;;
3991;SDS011;2010;48.194;16.394;2022-08-01T11:41:51;4.97;;;3.30;;
3991;SDS011;2010;48.194;16.394;2022-08-01T11:44:24;3.43;;;3.07;;
3991;SDS011;2010;48.194;16.394;2022-08-01T11:47:00;2.60;;;2.50;;
3991;SDS011;2010;48.194;16.394;2022-08-01T11:52:28;3.77;;;2.73;;
3991;SDS011;2010;48.194;16.394;2022-08-01T11:55:04;4.63;;;2.83;;
3991;SDS011;2010;48.194;16.394;2022-08-01T11:57:37;3.23;;;2.90;;
3991;SDS011;2010;48.194;16.394;2022-08-01T12:00:09;2.70;;;2.60;;
3991;SDS011;2010;48.194;16.394;2022-08-01T12:02:41;6.13;;;3.17;;
3991;SDS011;2010;48.194;16.394;2022-08-01T12:05:12;2.60;;;2.50;;
3991;SDS011;2010;48.194;16.394;2022-08-01T12:07:45;3.30;;;2.60;;
3991;SDS011;2010;48.194;16.394;2022-08-01T12:10:18;2.70;;;2.50;;
3991;SDS011;2010;48.194;16.394;2022-08-01T12:12:48;3.37;;;3.07;;
3991;SDS011;2010;48.194;16.394;2022-08-01T12:15:18;2.93;;;2.80;;
3991;SDS011;2010;48.194;16.394;2022-08-01T12:17:48;3.20;;;3.00;;
3991;SDS011;2010;48.194;16.394;2022-08-01T12:20:26;6.37;;;3.03;;
3991;SDS011;2010;48.194;16.394;2022-08-01T12:22:59;3.43;;;3.20;;
3991;SDS011;2010;48.194;16.394;2022-08-01T12:25:28;5.37;;;3.47;;
3991;SDS011;2010;48.194;16.394;2022-08-01T12:27:59;4.77;;;3.50;;
3991;SDS011;2010;48.194;16.394;2022-08-01T12:30:30;3.60;;;3.30;;
3991;SDS011;2010;48.194;16.394;2022-08-01T12:33:02;8.23;;;3.57;;
3991;SDS011;2010;48.194;16.394;2022-08-01T12:35:31;3.67;;;3.43;;
3991;SDS011;2010;48.194;16.394;2022-08-01T12:38:02;5.97;;;3.03;;
3991;SDS011;2010;48.194;16.394;2022-08-01T12:40:32;2.73;;;2.53;;
3991;SDS011;2010;48.194;16.394;2022-08-01T12:43:02;2.93;;;2.73;;
3991;SDS011;2010;48.194;16.394;2022-08-01T12:45:34;1.80;;;1.70;;
3991;SDS011;2010;48.194;16.394;2022-08-01T12:48:20;2.20;;;1.80;;
3991;SDS011;2010;48.194;16.394;2022-08-01T12:50:48;2.67;;;1.73;;
3991;SDS011;2010;48.194;16.394;2022-08-01T12:53:20;1.60;;;1.50;;
3991;SDS011;2010;48.194;16.394;2022-08-01T12:55:51;3.43;;;1.90;;
3991;SDS011;2010;48.194;16.394;2022-08-01T12:58:30;2.33;;;2.13;;
3991;SDS011;2010;48.194;16.394;2022-08-01T13:01:02;2.30;;;2.20;;
3991;SDS011;2010;48.194;16.394;2022-08-01T13:03:32;6.00;;;2.40;;
3991;SDS011;2010;48.194;16.394;2022-08-01T13:06:01;2.47;;;2.37;;
3991;SDS011;2010;48.194;16.394;2022-08-01T13:08:37;5.60;;;2.47;;
3991;SDS011;2010;48.194;16.394;2022-08-01T13:11:06;7.00;;;2.60;;
3991;SDS011;2010;48.194;16.394;2022-08-01T13:13:40;2.80;;;2.53;;
3991;SDS011;2010;48.194;16.394;2022-08-01T13:16:10;3.53;;;2.93;;
3991;SDS011;2010;48.194;16.394;2022-08-01T13:18:58;3.80;;;2.33;;
3991;SDS011;2010;48.194;16.394;2022-08-01T13:21:27;2.80;;;2.67;;
3991;SDS011;2010;48.194;16.394;2022-08-01T13:24:22;2.87;;;2.67;;
3991;SDS011;2010;48.194;16.394;2022-08-01T13:26:52;2.93;;;2.73;;
3991;SDS011;2010;48.194;16.394;2022-08-01T13:29:29;3.10;;;2.90;;
3991;SDS011;2010;48.194;16.394;2022-08-01T13:31:59;2.90;;;2.70;;
3991;SDS011;2010;48.194;16.394;2022-08-01T13:34:31;4.90;;;2.90;;
3991;SDS011;2010;48.194;16.394;2022-08-01T13:37:01;2.20;;;2.10;;
3991;SDS011;2010;48.194;16.394;2022-08-01T13:39:34;2.70;;;2.50;;
3991;SDS011;2010;48.194;16.394;2022-08-01T13:42:11;2.60;;;2.40;;
3991;SDS011;2010;48.194;16.394;2022-08-01T13:44:44;3.30;;;3.00;;
3991;SDS011;2010;48.194;16.394;2022-08-01T13:47:17;7.30;;;2.90;;
3991;SDS011;2010;48.194;16.394;2022-08-01T13:50:01;2.27;;;2.00;;
3991;SDS011;2010;48.194;16.394;2022-08-01T13:52:35;2.60;;;1.73;;
3991;SDS011;2010;48.194;16.394;2022-08-01T13:55:10;1.83;;;1.73;;
3991;SDS011;2010;48.194;16.394;2022-08-01T13:57:54;2.30;;;2.10;;
3991;SDS011;2010;48.194;16.394;2022-08-01T14:00:24;1.53;;;1.43;;
3991;SDS011;2010;48.194;16.394;2022-08-01T14:03:03;2.30;;;2.10;;
3991;SDS011;2010;48.194;16.394;2022-08-01T14:05:38;1.80;;;1.70;;
3991;SDS011;2010;48.194;16.394;2022-08-01T14:08:12;4.30;;;1.80;;
3991;SDS011;2010;48.194;16.394;2022-08-01T14:10:56;2.10;;;1.50;;
3991;SDS011;2010;48.194;16.394;2022-08-01T14:13:26;1.53;;;1.53;;
3991;SDS011;2010;48.194;16.394;2022-08-01T14:16:02;1.90;;;1.80;;
3991;SDS011;2010;48.194;16.394;2022-08-01T14:18:31;1.90;;;1.80;;
3991;SDS011;2010;48.194;16.394;2022-08-01T14:21:03;2.67;;;1.60;;
3991;SDS011;2010;48.194;16.394;2022-08-01T14:23:39;1.80;;;1.67;;
3991;SDS011;2010;48.194;16.394;2022-08-01T14:26:12;1.43;;;1.33;;
3991;SDS011;2010;48.194;16.394;2022-08-01T14:28:41;6.00;;;1.83;;
3991;SDS011;2010;48.194;16.394;2022-08-01T14:31:10;3.60;;;1.53;;
3991;SDS011;2010;48.194;16.394;2022-08-01T14:33:44;2.23;;;2.00;;
3991;SDS011;2010;48.194;16.394;2022-08-01T14:36:19;1.47;;;1.47;;
3991;SDS011;2010;48.194;16.394;2022-08-01T14:38:59;1.63;;;1.53;;
3991;SDS011;2010;48.194;16.394;2022-08-01T14:41:33;3.60;;;2.33;;
3991;SDS011;2010;48.194;16.394;2022-08-01T14:44:07;2.10;;;1.83;;
3991;SDS011;2010;48.194;16.394;2022-08-01T14:46:35;2.00;;;1.77;;
3991;SDS011;2010;48.194;16.394;2022-08-01T14:49:24;2.03;;;1.93;;
3991;SDS011;2010;48.194;16.394;2022-08-01T14:51:52;2.87;;;1.73;;
3991;SDS011;2010;48.194;16.394;2022-08-01T14:54:24;1.77;;;1.77;;
3991;SDS011;2010;48.194;16.394;2022-08-01T14:56:57;1.80;;;1.70;;
3991;SDS011;2010;48.194;16.394;2022-08-01T14:59:28;2.40;;;1.77;;
3991;SDS011;2010;48.194;16.394;2022-08-01T15:01:57;1.80;;;1.70;;
3991;SDS011;2010;48.194;16.394;2022-08-01T15:04:28;2.27;;;2.17;;
3991;SDS011;2010;48.194;16.394;2022-08-01T15:07:03;2.50;;;2.03;;
3991;SDS011;2010;48.194;16.394;2022-08-01T15:09:37;5.50;;;2.23;;
3991;SDS011;2010;48.194;16.394;2022-08-01T15:12:15;2.13;;;2.03;;
3991;SDS011;2010;48.194;16.394;2022-08-01T15:14:44;3.80;;;2.50;;
3991;SDS011;2010;48.194;16.394;2022-08-01T15:17:30;2.70;;;1.90;;
3991;SDS011;2010;48.194;16.394;2022-08-01T15:20:03;6.30;;;2.57;;
3991;SDS011;2010;48.194;16.394;2022-08-01T15:22:34;3.80;;;2.00;;
3991;SDS011;2010;48.194;16.394;2022-08-01T15:25:07;2.60;;;2.40;;
3991;SDS011;2010;48.194;16.394;2022-08-01T15:27:37;3.10;;;2.20;;
3991;SDS011;2010;48.194;16.394;2022-08-01T15:30:09;2.20;;;2.10;;
3991;SDS011;2010;48.194;16.394;2022-08-01T15:32:53;2.10;;;2.00;;
3991;SDS011;2010;48.194;16.394;2022-08-01T15:35:27;3.10;;;2.50;;
3991;SDS011;2010;48.194;16.394;2022-08-01T15:37:59;2.30;;;2.10;;
3991;SDS011;2010;48.194;16.394;2022-08-01T15:40:30;7.93;;;2.70;;